Terminal Aerodrome Forecast
Issued by NWS Wilmington, OH

Current Version | Previous Version | Graphics & Text | Print | Product List | Glossary On
Versions: 1 2 3 4 5 6 7 8 9 10 11 12 13 14 15 16 17 18
774
FTUS41 KILN 161511 AAB
TAFILN
TAF AMD
KILN 161511Z 1615/1712 33010KT P6SM BKN040
      TEMPO 1615/1617 BKN025
     FM170100 VRB03KT P6SM SKC=

USA.gov is the U.S. government's official web portal to all federal, state and local government web resources and services.